createdAt,value
2018-05-11T00:00:20.112Z,8.20
2018-05-11T00:02:47.575Z,8.70
2018-05-11T00:05:15.045Z,8.77
2018-05-11T00:07:42.504Z,8.30
2018-05-11T00:10:09.977Z,10.00
2018-05-11T00:12:37.447Z,9.37
2018-05-11T00:15:05.686Z,8.80
2018-05-11T00:17:33.142Z,9.00
2018-05-11T00:20:00.618Z,9.23
2018-05-11T00:22:28.860Z,9.70
2018-05-11T00:24:56.324Z,10.90
2018-05-11T00:27:23.798Z,9.23
2018-05-11T00:29:51.256Z,10.33
2018-05-11T00:32:18.715Z,9.27
2018-05-11T00:34:46.194Z,9.73
2018-05-11T00:37:14.417Z,8.83
2018-05-11T00:39:41.925Z,9.60
2018-05-11T00:42:10.152Z,9.23
2018-05-11T00:44:37.605Z,10.60
2018-05-11T00:47:05.088Z,10.53
2018-05-11T00:49:33.322Z,10.60
2018-05-11T00:52:00.783Z,9.97
2018-05-11T00:54:28.271Z,10.90
2018-05-11T00:56:55.748Z,10.10
2018-05-11T00:59:23.986Z,10.83
2018-05-11T01:01:51.469Z,10.70
2018-05-11T01:04:18.944Z,10.73
2018-05-11T01:06:47.177Z,11.60
2018-05-11T01:09:14.773Z,10.43
2018-05-11T01:11:42.992Z,9.70
2018-05-11T01:14:10.488Z,11.00
2018-05-11T01:16:38.716Z,9.27
2018-05-11T01:19:06.176Z,11.30
2018-05-11T01:21:33.682Z,10.47
2018-05-11T01:24:01.153Z,11.00
2018-05-11T01:26:29.384Z,11.73
2018-05-11T01:28:56.861Z,11.43
2018-05-11T01:31:24.328Z,10.53
2018-05-11T01:33:52.580Z,10.73
2018-05-11T01:36:20.157Z,10.83
2018-05-11T01:38:48.388Z,11.40
2018-05-11T01:41:15.874Z,12.13
2018-05-11T01:43:43.329Z,13.23
2018-05-11T01:46:10.799Z,12.90
2018-05-11T01:48:39.043Z,13.03
2018-05-11T01:51:06.511Z,12.30
2018-05-11T01:53:33.982Z,14.30
2018-05-11T01:56:01.456Z,13.10
2018-05-11T01:58:29.699Z,13.00
2018-05-11T02:00:57.164Z,13.33
2018-05-11T02:03:24.640Z,15.70
2018-05-11T02:05:52.894Z,14.10
2018-05-11T02:08:20.401Z,13.60
2018-05-11T02:10:47.873Z,13.20
2018-05-11T02:13:15.335Z,12.43
2018-05-11T02:15:42.817Z,13.33
2018-05-11T02:18:10.280Z,12.47
2018-05-11T02:20:37.752Z,13.50
2018-05-11T02:23:05.995Z,14.70
2018-05-11T02:25:33.468Z,13.63
2018-05-11T02:28:00.939Z,12.70
2018-05-11T02:30:29.164Z,13.13
2018-05-11T02:32:56.669Z,13.50
2018-05-11T02:35:24.125Z,10.90
2018-05-11T02:37:52.353Z,12.40
2018-05-11T02:40:19.849Z,10.30
2018-05-11T02:42:47.400Z,11.20
2018-05-11T02:45:14.878Z,12.80
2018-05-11T02:47:43.137Z,12.57
2018-05-11T02:50:10.605Z,12.50
2018-05-11T02:52:38.156Z,13.53
2018-05-11T02:55:05.631Z,13.97
2018-05-11T02:57:33.869Z,13.73
2018-05-11T03:00:01.356Z,14.27
2018-05-11T03:02:29.580Z,14.00
2018-05-11T03:04:57.074Z,12.67
2018-05-11T03:07:24.585Z,13.13
2018-05-11T03:09:52.052Z,12.77
2018-05-11T03:12:19.540Z,14.00
2018-05-11T03:14:47.004Z,12.40
2018-05-11T03:17:14.460Z,12.10
2018-05-11T03:19:42.725Z,11.70
2018-05-11T03:22:10.195Z,12.30
2018-05-11T03:24:38.420Z,12.67
2018-05-11T03:27:05.895Z,13.30
2018-05-11T03:29:33.360Z,12.27
2018-05-11T03:32:00.818Z,13.00
2018-05-11T03:34:28.341Z,12.77
2018-05-11T03:36:55.801Z,11.67
2018-05-11T03:39:23.261Z,13.20
2018-05-11T03:41:50.733Z,13.03
2018-05-11T03:44:18.193Z,12.80
2018-05-11T03:46:45.668Z,12.63
2018-05-11T03:49:13.141Z,11.83
2018-05-11T03:51:41.379Z,12.20
2018-05-11T03:54:08.881Z,12.37
2018-05-11T03:56:37.111Z,12.47
2018-05-11T03:59:04.588Z,12.63
2018-05-11T04:01:43.912Z,13.40
2018-05-11T04:04:23.415Z,13.00
2018-05-11T04:07:02.921Z,13.27
2018-05-11T04:09:30.388Z,12.90
2018-05-11T04:11:58.613Z,13.03
2018-05-11T04:14:26.100Z,12.37
2018-05-11T04:16:54.429Z,12.87
2018-05-11T04:19:21.881Z,12.90
2018-05-11T04:21:49.366Z,12.87
2018-05-11T04:24:16.817Z,12.53
2018-05-11T04:26:44.289Z,12.37
2018-05-11T04:29:11.760Z,11.80
2018-05-11T04:31:40.001Z,11.90
2018-05-11T04:34:07.464Z,12.40
2018-05-11T04:36:34.949Z,12.10
2018-05-11T04:39:03.177Z,12.37
2018-05-11T04:41:30.641Z,13.20
2018-05-11T04:43:58.134Z,11.37
2018-05-11T04:46:25.589Z,13.00
2018-05-11T04:48:53.084Z,12.00
2018-05-11T04:51:20.553Z,12.30
2018-05-11T04:53:48.018Z,13.10
2018-05-11T04:56:15.481Z,11.90
2018-05-11T04:58:42.967Z,13.30
2018-05-11T05:01:10.431Z,11.77
2018-05-11T05:03:38.658Z,11.80
2018-05-11T05:06:06.132Z,11.70
2018-05-11T05:08:33.589Z,13.30
2018-05-11T05:11:01.048Z,12.30
2018-05-11T05:13:28.577Z,12.40
2018-05-11T05:15:56.061Z,11.97
2018-05-11T05:18:23.516Z,12.60
2018-05-11T05:20:50.997Z,12.07
2018-05-11T05:23:19.240Z,14.33
2018-05-11T05:25:46.715Z,12.87
2018-05-11T05:28:14.203Z,12.67
2018-05-11T05:30:42.438Z,13.00
2018-05-11T05:33:10.054Z,12.30
2018-05-11T05:35:37.460Z,12.07
2018-05-11T05:38:04.951Z,12.97
2018-05-11T05:40:33.209Z,12.73
2018-05-11T05:43:00.681Z,12.43
2018-05-11T05:45:28.909Z,12.73
2018-05-11T05:47:56.453Z,13.70
2018-05-11T05:50:23.924Z,12.87
2018-05-11T05:52:51.381Z,12.03
2018-05-11T05:55:18.885Z,12.90
2018-05-11T05:57:47.107Z,11.80
2018-05-11T06:00:14.577Z,13.33
2018-05-11T06:02:42.066Z,13.10
2018-05-11T06:05:10.300Z,12.50
2018-05-11T06:07:37.777Z,12.63
2018-05-11T06:10:05.270Z,12.93
2018-05-11T06:12:32.739Z,11.80
2018-05-11T06:15:00.204Z,13.87
2018-05-11T06:17:27.690Z,13.50
2018-05-11T06:19:55.155Z,13.67
2018-05-11T06:22:22.778Z,16.00
2018-05-11T06:24:50.322Z,16.70
2018-05-11T06:27:18.539Z,16.63
2018-05-11T06:29:46.011Z,16.57
2018-05-11T06:32:13.521Z,18.93
2018-05-11T06:34:40.985Z,13.57
2018-05-11T06:37:08.486Z,13.77
2018-05-11T06:39:35.982Z,14.93
2018-05-11T06:42:03.461Z,12.90
2018-05-11T06:44:30.939Z,13.40
2018-05-11T06:46:58.477Z,11.80
2018-05-11T06:49:25.943Z,13.13
2018-05-11T06:51:53.413Z,11.97
2018-05-11T06:54:20.920Z,11.30
2018-05-11T06:56:48.394Z,10.70
2018-05-11T06:59:15.873Z,10.93
2018-05-11T07:01:43.354Z,10.77
2018-05-11T07:04:10.830Z,11.87
2018-05-11T07:06:39.072Z,10.17
2018-05-11T07:09:06.593Z,10.33
2018-05-11T07:11:34.069Z,10.80
2018-05-11T07:14:01.532Z,11.37
2018-05-11T07:16:29.029Z,11.33
2018-05-11T07:18:56.520Z,10.13
2018-05-11T07:21:24.079Z,9.90
2018-05-11T07:23:51.571Z,11.17
2018-05-11T07:26:19.046Z,10.90
2018-05-11T07:28:46.549Z,11.30
2018-05-11T07:31:14.110Z,11.33
2018-05-11T07:33:41.565Z,11.97
2018-05-11T07:36:09.091Z,12.13
2018-05-11T07:38:37.360Z,13.80
2018-05-11T07:41:05.589Z,13.27
2018-05-11T07:43:33.061Z,15.67
2018-05-11T07:46:00.547Z,16.27
2018-05-11T07:48:28.778Z,17.00
2018-05-11T07:50:56.262Z,17.50
2018-05-11T07:53:23.720Z,18.33
2018-05-11T07:55:52.007Z,18.00
2018-05-11T07:58:19.480Z,18.40
2018-05-11T08:00:47.721Z,17.80
2018-05-11T08:03:15.204Z,17.57
2018-05-11T08:05:43.441Z,16.77
2018-05-11T08:08:10.920Z,16.70
2018-05-11T08:10:38.424Z,17.10
2018-05-11T08:13:05.881Z,16.90
2018-05-11T08:15:33.384Z,15.53
2018-05-11T08:18:00.874Z,17.13
2018-05-11T08:20:29.123Z,18.30
2018-05-11T08:22:56.607Z,19.10
2018-05-11T08:25:24.853Z,17.87
2018-05-11T08:27:52.421Z,17.97
2018-05-11T08:30:19.893Z,15.33
2018-05-11T08:32:48.153Z,16.53
2018-05-11T08:35:15.661Z,16.93
2018-05-11T08:37:43.125Z,17.53
2018-05-11T08:40:10.612Z,16.90
2018-05-11T08:42:38.077Z,18.03
2018-05-11T08:45:06.329Z,19.73
2018-05-11T08:47:33.792Z,19.13
2018-05-11T08:50:01.297Z,20.83
2018-05-11T08:52:29.546Z,22.10
2018-05-11T08:54:57.042Z,20.83
2018-05-11T08:57:24.603Z,23.33
2018-05-11T08:59:52.089Z,20.10
2018-05-11T09:02:19.565Z,20.40
2018-05-11T09:04:47.028Z,20.80
2018-05-11T09:07:15.272Z,19.40
2018-05-11T09:09:42.747Z,19.97
2018-05-11T09:12:10.214Z,19.40
2018-05-11T09:14:37.682Z,19.00
2018-05-11T09:17:05.925Z,19.67
2018-05-11T09:19:33.393Z,20.07
2018-05-11T09:22:01.043Z,20.03
2018-05-11T09:24:28.534Z,18.80
2018-05-11T09:26:56.761Z,19.90
2018-05-11T09:29:24.249Z,18.33
2018-05-11T09:31:51.787Z,19.37
2018-05-11T09:34:19.953Z,18.90
2018-05-11T09:36:47.491Z,18.73
2018-05-11T09:39:15.638Z,17.93
2018-05-11T09:41:43.102Z,18.33
2018-05-11T09:44:10.594Z,17.80
2018-05-11T09:46:38.065Z,21.20
2018-05-11T09:49:05.546Z,16.73
2018-05-11T09:51:33.790Z,18.03
2018-05-11T09:54:01.253Z,19.17
2018-05-11T09:56:29.127Z,19.90
2018-05-11T09:58:56.610Z,17.63
2018-05-11T10:01:24.852Z,18.80
2018-05-11T10:03:52.333Z,17.30
2018-05-11T10:06:20.590Z,16.73
2018-05-11T10:08:48.069Z,17.13
2018-05-11T10:11:16.385Z,17.27
2018-05-11T10:13:43.896Z,17.00
2018-05-11T10:16:12.130Z,16.30
2018-05-11T10:18:39.700Z,14.97
2018-05-11T10:21:07.874Z,15.17
2018-05-11T10:23:35.349Z,14.00
2018-05-11T10:26:02.904Z,14.20
2018-05-11T10:28:30.368Z,14.77
2018-05-11T10:30:58.606Z,14.40
2018-05-11T10:33:26.100Z,14.20
2018-05-11T10:35:54.336Z,13.50
2018-05-11T10:38:21.825Z,14.00
2018-05-11T10:40:49.302Z,14.10
2018-05-11T10:43:17.533Z,16.20
2018-05-11T10:45:45.040Z,16.20
2018-05-11T10:48:13.278Z,16.17
2018-05-11T10:50:40.749Z,13.80
2018-05-11T10:53:08.242Z,15.47
2018-05-11T10:55:35.719Z,15.93
2018-05-11T10:58:03.208Z,16.20
2018-05-11T11:00:30.685Z,15.30
2018-05-11T11:02:58.930Z,14.60
2018-05-11T11:05:26.415Z,14.27
2018-05-11T11:07:53.885Z,12.40
2018-05-11T11:10:22.130Z,13.30
2018-05-11T11:12:49.617Z,13.80
2018-05-11T11:15:17.869Z,15.13
2018-05-11T11:17:45.325Z,15.00
2018-05-11T11:20:12.820Z,13.43
2018-05-11T11:22:40.301Z,13.53
2018-05-11T11:25:07.789Z,11.90
2018-05-11T11:27:35.269Z,12.40
2018-05-11T11:30:03.508Z,11.27
2018-05-11T11:32:30.965Z,11.87
2018-05-11T11:34:58.464Z,13.00
2018-05-11T11:37:26.728Z,11.93
2018-05-11T11:39:54.201Z,12.40
2018-05-11T11:42:21.689Z,10.57
2018-05-11T11:44:49.166Z,10.70
2018-05-11T11:47:16.653Z,14.50
2018-05-11T11:49:44.897Z,12.37
2018-05-11T11:52:12.363Z,11.30
2018-05-11T11:54:39.840Z,10.83
2018-05-11T11:57:08.086Z,11.47
2018-05-11T11:59:35.553Z,12.37
2018-05-11T12:02:03.158Z,11.33
2018-05-11T12:04:30.523Z,9.70
2018-05-11T12:06:58.005Z,10.37
2018-05-11T12:09:25.505Z,11.90
2018-05-11T12:11:53.731Z,11.20
2018-05-11T12:14:21.204Z,12.00
2018-05-11T12:16:48.847Z,11.70
2018-05-11T12:19:16.350Z,10.83
2018-05-11T12:21:44.576Z,11.53
2018-05-11T12:24:12.073Z,10.17
2018-05-11T12:26:39.550Z,11.80
2018-05-11T12:29:07.777Z,11.43
2018-05-11T12:31:35.279Z,11.53
2018-05-11T12:34:03.520Z,11.17
2018-05-11T12:36:30.977Z,9.90
2018-05-11T12:38:58.604Z,11.07
2018-05-11T12:41:26.072Z,10.80
2018-05-11T12:43:53.553Z,11.20
2018-05-11T12:46:21.052Z,11.17
2018-05-11T12:48:49.298Z,10.90
2018-05-11T12:51:16.761Z,9.87
2018-05-11T12:53:45.384Z,10.20
2018-05-11T12:56:12.850Z,9.70
2018-05-11T12:58:40.314Z,8.93
2018-05-11T13:01:07.805Z,8.27
2018-05-11T13:03:35.265Z,9.33
2018-05-11T13:06:03.489Z,8.50
2018-05-11T13:08:30.984Z,9.77
2018-05-11T13:10:58.553Z,9.43
2018-05-11T13:13:26.030Z,9.83
2018-05-11T13:15:54.301Z,8.87
2018-05-11T13:18:22.565Z,8.20
2018-05-11T13:20:50.159Z,6.77
2018-05-11T13:23:18.396Z,6.57
2018-05-11T13:25:45.879Z,6.73
2018-05-11T13:28:15.003Z,6.47
2018-05-11T13:30:43.554Z,6.40
2018-05-11T13:33:11.665Z,6.43
2018-05-11T13:35:40.284Z,6.37
2018-05-11T13:38:08.768Z,5.90
2018-05-11T13:40:37.001Z,5.80
2018-05-11T13:43:05.442Z,7.47
2018-05-11T13:45:33.696Z,6.40
2018-05-11T13:48:03.104Z,6.90
2018-05-11T13:50:31.353Z,6.00
2018-05-11T13:52:59.559Z,5.97
2018-05-11T13:55:29.303Z,5.70
2018-05-11T13:57:57.989Z,5.20
2018-05-11T14:00:26.281Z,4.90
2018-05-11T14:02:53.745Z,7.50
2018-05-11T14:05:21.237Z,6.20
2018-05-11T14:07:49.465Z,6.30
2018-05-11T14:10:17.027Z,6.30
2018-05-11T14:12:44.440Z,6.80
2018-05-11T14:15:11.918Z,6.23
2018-05-11T14:17:39.381Z,5.53
2018-05-11T14:20:07.140Z,5.93
2018-05-11T14:22:34.621Z,6.17
2018-05-11T14:25:02.168Z,5.80
2018-05-11T14:27:29.569Z,5.03
2018-05-11T14:29:57.820Z,6.30
2018-05-11T14:32:25.273Z,6.20
2018-05-11T14:34:52.753Z,5.30
2018-05-11T14:37:20.226Z,5.80
2018-05-11T14:39:48.449Z,4.37
2018-05-11T14:42:15.932Z,5.67
2018-05-11T14:44:43.397Z,4.60
2018-05-11T14:47:11.638Z,4.43
2018-05-11T14:49:39.333Z,4.93
2018-05-11T14:52:06.716Z,4.20
2018-05-11T14:54:34.184Z,5.50
2018-05-11T14:57:01.675Z,5.80
2018-05-11T14:59:29.147Z,5.20
2018-05-11T15:01:56.668Z,4.60
2018-05-11T15:04:24.160Z,5.07
2018-05-11T15:06:51.617Z,4.50
2018-05-11T15:09:19.069Z,5.13
2018-05-11T15:11:46.550Z,4.90
2018-05-11T15:14:14.787Z,4.10
2018-05-11T15:16:42.259Z,4.30
2018-05-11T15:19:09.909Z,4.20
2018-05-11T15:21:37.365Z,4.50
2018-05-11T15:24:04.821Z,3.23
2018-05-11T15:26:32.350Z,4.53
2018-05-11T15:28:59.911Z,3.97
2018-05-11T15:31:27.368Z,3.67
2018-05-11T15:33:54.858Z,3.00
2018-05-11T15:36:22.331Z,4.00
2018-05-11T15:38:49.781Z,3.77
2018-05-11T15:41:17.250Z,4.13
2018-05-11T15:43:45.489Z,3.00
2018-05-11T15:46:13.000Z,4.33
2018-05-11T15:48:40.478Z,3.03
2018-05-11T15:51:08.460Z,4.40
2018-05-11T15:53:35.954Z,3.83
2018-05-11T15:56:03.409Z,4.30
2018-05-11T15:58:30.925Z,3.30
2018-05-11T16:00:58.382Z,3.33
2018-05-11T16:03:25.865Z,3.30
2018-05-11T16:05:53.351Z,3.10
2018-05-11T16:08:21.576Z,3.50
2018-05-11T16:10:49.061Z,3.23
2018-05-11T16:13:16.637Z,3.50
2018-05-11T16:15:44.138Z,2.80
2018-05-11T16:18:11.643Z,3.23
2018-05-11T16:20:39.295Z,3.20
2018-05-11T16:23:06.656Z,3.37
2018-05-11T16:25:34.140Z,2.93
2018-05-11T16:28:02.471Z,3.57
2018-05-11T16:30:29.938Z,3.50
2018-05-11T16:32:57.393Z,3.27
2018-05-11T16:35:24.889Z,3.33
2018-05-11T16:37:52.362Z,3.00
2018-05-11T16:40:19.831Z,3.03
2018-05-11T16:42:47.320Z,3.03
2018-05-11T16:45:14.784Z,3.33
2018-05-11T16:47:42.248Z,2.67
2018-05-11T16:50:09.772Z,2.60
2018-05-11T16:52:37.235Z,3.67
2018-05-11T16:55:04.700Z,2.80
2018-05-11T16:57:32.952Z,2.63
2018-05-11T17:00:00.406Z,3.00
2018-05-11T17:02:27.867Z,2.70
2018-05-11T17:04:55.349Z,3.03
2018-05-11T17:07:22.800Z,2.53
2018-05-11T17:09:50.264Z,2.73
2018-05-11T17:12:17.757Z,2.53
2018-05-11T17:14:45.227Z,2.50
2018-05-11T17:17:12.717Z,2.90
2018-05-11T17:19:40.201Z,2.70
2018-05-11T17:22:07.689Z,2.60
2018-05-11T17:24:35.908Z,2.57
2018-05-11T17:27:03.439Z,2.50
2018-05-11T17:29:30.933Z,2.73
2018-05-11T17:31:58.406Z,2.57
2018-05-11T17:34:25.848Z,2.20
2018-05-11T17:36:53.374Z,2.50
2018-05-11T17:39:20.830Z,2.23
2018-05-11T17:41:48.375Z,2.37
2018-05-11T17:44:17.307Z,2.40
2018-05-11T17:46:44.777Z,3.20
2018-05-11T17:49:12.243Z,2.50
2018-05-11T17:51:39.733Z,2.13
2018-05-11T17:54:07.228Z,2.53
2018-05-11T17:56:34.720Z,2.60
2018-05-11T17:59:02.957Z,2.10
2018-05-11T18:01:30.412Z,2.50
2018-05-11T18:03:57.896Z,2.60
2018-05-11T18:06:25.382Z,2.23
2018-05-11T18:08:53.616Z,2.60
2018-05-11T18:11:21.098Z,2.20
2018-05-11T18:13:49.333Z,3.10
2018-05-11T18:16:16.810Z,2.53
2018-05-11T18:18:44.361Z,2.37
2018-05-11T18:21:11.835Z,2.60
2018-05-11T18:23:40.086Z,2.70
2018-05-11T18:26:07.599Z,2.50
2018-05-11T18:28:35.073Z,3.17
2018-05-11T18:31:02.614Z,3.03
2018-05-11T18:33:30.042Z,3.10
2018-05-11T18:35:57.494Z,3.63
2018-05-11T18:38:24.949Z,3.03
2018-05-11T18:40:52.445Z,2.50
2018-05-11T18:43:19.900Z,2.90
2018-05-11T18:45:47.366Z,2.57
2018-05-11T18:48:14.850Z,3.03
2018-05-11T18:50:42.312Z,3.30
2018-05-11T18:53:09.877Z,2.80
2018-05-11T18:55:37.264Z,3.00
2018-05-11T18:58:05.504Z,3.10
2018-05-11T19:00:33.021Z,3.03
2018-05-11T19:03:00.517Z,2.80
2018-05-11T19:05:28.036Z,2.80
2018-05-11T19:07:55.494Z,2.90
2018-05-11T19:10:22.978Z,3.20
2018-05-11T19:12:50.486Z,3.10
2018-05-11T19:15:17.965Z,3.73
2018-05-11T19:17:45.424Z,3.47
2018-05-11T19:20:12.913Z,3.77
2018-05-11T19:22:40.378Z,3.53
2018-05-11T19:25:07.844Z,3.60
2018-05-11T19:27:36.830Z,3.90
2018-05-11T19:30:04.292Z,3.97
2018-05-11T19:32:31.769Z,3.90
2018-05-11T19:35:00.013Z,3.70
2018-05-11T19:37:27.834Z,4.00
2018-05-11T19:39:55.301Z,3.53
2018-05-11T19:42:22.882Z,4.93
2018-05-11T19:44:50.266Z,3.83
2018-05-11T19:47:17.764Z,4.30
2018-05-11T19:49:45.242Z,4.23
2018-05-11T19:52:12.728Z,4.30
2018-05-11T19:54:40.209Z,4.17
2018-05-11T19:57:08.578Z,4.40
2018-05-11T19:59:36.814Z,4.63
2018-05-11T20:02:04.290Z,5.17
2018-05-11T20:04:31.754Z,5.30
2018-05-11T20:06:59.218Z,5.30
2018-05-11T20:09:26.818Z,5.37
2018-05-11T20:11:54.277Z,4.90
2018-05-11T20:14:21.749Z,5.60
2018-05-11T20:16:49.229Z,5.80
2018-05-11T20:19:16.710Z,5.37
2018-05-11T20:21:44.954Z,5.63
2018-05-11T20:24:12.419Z,5.67
2018-05-11T20:26:39.900Z,6.20
2018-05-11T20:29:08.145Z,5.83
2018-05-11T20:31:35.624Z,6.17
2018-05-11T20:34:03.875Z,5.83
2018-05-11T20:36:31.356Z,6.00
2018-05-11T20:38:59.585Z,5.40
2018-05-11T20:41:27.082Z,6.10
2018-05-11T20:43:54.589Z,6.80
2018-05-11T20:46:22.050Z,6.53
2018-05-11T20:48:49.595Z,6.70
2018-05-11T20:51:17.050Z,5.93
2018-05-11T20:53:44.554Z,6.33
2018-05-11T20:56:12.048Z,6.30
2018-05-11T20:58:40.281Z,6.77
2018-05-11T21:01:07.766Z,7.30
2018-05-11T21:03:36.019Z,7.07
2018-05-11T21:06:03.485Z,7.33
2018-05-11T21:08:30.994Z,6.77
2018-05-11T21:10:58.493Z,7.40
2018-05-11T21:13:25.953Z,7.53
2018-05-11T21:15:53.416Z,7.93
2018-05-11T21:18:21.707Z,7.47
2018-05-11T21:20:49.928Z,7.47
2018-05-11T21:23:17.418Z,7.63
2018-05-11T21:25:44.966Z,7.77
2018-05-11T21:28:12.418Z,7.30
2018-05-11T21:30:39.909Z,8.00
2018-05-11T21:33:08.152Z,7.80
2018-05-11T21:35:35.620Z,7.37
2018-05-11T21:38:03.126Z,7.90
2018-05-11T21:40:30.597Z,7.13
2018-05-11T21:42:58.061Z,7.40
2018-05-11T21:45:25.548Z,8.20
2018-05-11T21:47:53.780Z,7.80
2018-05-11T21:50:21.325Z,8.30
2018-05-11T21:52:48.831Z,7.47
2018-05-11T21:55:16.293Z,8.13
2018-05-11T21:57:43.770Z,8.30
2018-05-11T22:00:12.056Z,7.03
2018-05-11T22:02:39.513Z,7.63
2018-05-11T22:05:06.976Z,7.43
2018-05-11T22:07:34.493Z,7.97
2018-05-11T22:10:01.975Z,7.77
2018-05-11T22:12:30.217Z,7.70
2018-05-11T22:14:57.702Z,6.80
2018-05-11T22:17:25.957Z,7.50
2018-05-11T22:19:53.417Z,7.83
2018-05-11T22:22:20.943Z,7.80
2018-05-11T22:24:48.398Z,8.70
2018-05-11T22:27:15.873Z,8.40
2018-05-11T22:29:43.353Z,7.80
2018-05-11T22:32:11.617Z,8.37
2018-05-11T22:34:39.075Z,7.90
2018-05-11T22:37:06.530Z,7.20
2018-05-11T22:39:34.082Z,7.67
2018-05-11T22:42:01.553Z,7.63
2018-05-11T22:44:29.025Z,9.90
2018-05-11T22:46:56.561Z,7.70
2018-05-11T22:49:24.042Z,8.17
2018-05-11T22:51:51.531Z,9.00
2018-05-11T22:54:19.005Z,7.03
2018-05-11T22:56:46.531Z,8.13
2018-05-11T22:59:14.057Z,8.90
2018-05-11T23:01:41.529Z,7.77
2018-05-11T23:04:08.994Z,8.30
2018-05-11T23:06:36.479Z,8.00
2018-05-11T23:09:03.942Z,8.10
2018-05-11T23:11:31.409Z,8.43
2018-05-11T23:13:58.877Z,8.10
2018-05-11T23:16:26.389Z,8.53
2018-05-11T23:18:53.853Z,8.50
2018-05-11T23:21:21.308Z,8.40
2018-05-11T23:23:48.858Z,8.03
2018-05-11T23:26:16.329Z,7.77
2018-05-11T23:28:43.803Z,8.80
2018-05-11T23:31:11.279Z,7.83
2018-05-11T23:33:38.762Z,8.10
2018-05-11T23:36:06.999Z,7.20
2018-05-11T23:38:34.513Z,8.00
2018-05-11T23:41:01.966Z,7.90
2018-05-11T23:43:29.447Z,8.03
2018-05-11T23:45:56.940Z,7.57
2018-05-11T23:48:24.415Z,7.30
2018-05-11T23:50:52.665Z,7.00
2018-05-11T23:53:20.126Z,7.23
2018-05-11T23:55:47.696Z,7.17
2018-05-11T23:58:15.942Z,6.40
